Adams Gardens, Texas
Current Conditions -  °F | °C
As of 2:52 PM on Monday 22 Dec 2014 (Local Time) from KHRL Reporting Station
Clear Clear  
Wind Chill: 80°   Ceiling: Unl
Heat Index: 82°   Visibility: 10mi
Dew Point: 65°   Wind: 8mph
Humidity: 60%   Direction: 170°S
Pressure: 29.65"   Gusts: 17mph
Location:  26.2089°N, 97.6849°W
Report Text: KHRL 222052Z 17007G15KT 10SM CLR 27/18 A2965 RMK AO2 SLP040 T02670183 56031
Loading
Personal Weather Stations






























Interactive Weather Map New forecast layout! Learn more

10-Day Weather Forecast

Advertisements
Track Severe Weather on mobile